Time;durP1;ratioP1;P1;durP2;ratioP2;P2;SDS_P1;SDS_P2;PMS_P1;PMS_P2;Temp;Humidity;BMP_temperature;BMP_pressure;BME280_temperature;BME280_humidity;BME280_pressure;Samples;Min_cycle;Max_cycle;Signal;HPM_P1;HPM_P2
2021/05/23 00:01:46;;;;;;;11.65;4.85;;;;;;;;;;5089033;28;20161;-65
2021/05/23 00:04:24;;;;;;;16.40;5.85;;;;;;;;;;5115963;28;20034;-65
2021/05/23 00:06:49;;;;;;;15.27;4.85;;;;;;;;;;5114346;28;20078;-65
2021/05/23 00:09:15;;;;;;;9.57;4.72;;;;;;;;;;5115417;28;20084;-65
2021/05/23 00:11:53;;;;;;;10.15;4.53;;;;;;;;;;5115804;28;20015;-66
2021/05/23 00:14:19;;;;;;;12.77;4.53;;;;;;;;;;5115598;28;20035;-64
2021/05/23 00:16:44;;;;;;;10.68;4.70;;;;;;;;;;5115300;28;20016;-64
2021/05/23 00:19:24;;;;;;;20.50;4.60;;;;;;;;;;5115825;28;20022;-63
2021/05/23 00:21:49;;;;;;;10.65;4.80;;;;;;;;;;5115363;28;20032;-63
2021/05/23 00:24:15;;;;;;;14.15;5.30;;;;;;;;;;5115106;28;20039;-64
2021/05/23 00:26:53;;;;;;;14.40;4.88;;;;;;;;;;5115485;28;20031;-64
2021/05/23 00:29:19;;;;;;;9.88;4.60;;;;;;;;;;5115410;28;20043;-63
2021/05/23 00:31:44;;;;;;;17.27;5.13;;;;;;;;;;5115223;28;20073;-66
2021/05/23 00:34:23;;;;;;;18.10;4.85;;;;;;;;;;5115218;28;20019;-66
2021/05/23 00:36:51;;;;;;;13.32;5.20;;;;;;;;;;5115509;28;20024;-66
2021/05/23 00:39:16;;;;;;;12.63;4.30;;;;;;;;;;5114826;28;20068;-66
2021/05/23 00:41:55;;;;;;;12.68;4.57;;;;;;;;;;5115300;28;20098;-66
2021/05/23 00:44:21;;;;;;;16.80;4.95;;;;;;;;;;5115048;28;20047;-64
2021/05/23 00:46:46;;;;;;;9.82;4.60;;;;;;;;;;5115031;28;20008;-64
2021/05/23 00:49:25;;;;;;;15.93;5.25;;;;;;;;;;5114892;28;20448;-63
2021/05/23 00:51:51;;;;;;;15.23;6.32;;;;;;;;;;5114885;28;20059;-63
2021/05/23 00:54:16;;;;;;;14.25;6.75;;;;;;;;;;5114593;28;20096;-63
2021/05/23 00:56:55;;;;;;;20.40;6.75;;;;;;;;;;5114903;28;20051;-64
2021/05/23 00:59:20;;;;;;;20.23;5.97;;;;;;;;;;5114737;28;20063;-64
2021/05/23 01:01:46;;;;;;;15.95;6.70;;;;;;;;;;5114587;28;20461;-65
2021/05/23 01:04:24;;;;;;;21.05;5.85;;;;;;;;;;5114556;28;20028;-65
2021/05/23 01:06:50;;;;;;;11.98;5.55;;;;;;;;;;5113295;28;20059;-65
2021/05/23 01:09:16;;;;;;;15.85;6.53;;;;;;;;;;5114446;28;20460;-65
2021/05/23 01:11:54;;;;;;;17.50;5.55;;;;;;;;;;5114335;28;20099;-66
2021/05/23 01:14:38;;;;;;;16.52;4.88;;;;;;;;;;5114359;28;20036;-65
2021/05/23 01:17:18;;;;;;;14.30;5.13;;;;;;;;;;5114221;28;20016;-65
2021/05/23 01:19:55;;;;;;;10.45;4.50;;;;;;;;;;5114366;28;20032;-65
2021/05/23 01:22:43;;;;;;;16.55;4.60;;;;;;;;;;5114168;28;20059;-66
2021/05/23 01:25:09;;;;;;;13.75;4.80;;;;;;;;;;5114137;28;20067;-63
2021/05/23 01:27:45;;;;;;;14.02;4.05;;;;;;;;;;5113945;28;20490;-64
2021/05/23 01:30:27;;;;;;;17.35;4.45;;;;;;;;;;5114212;28;20028;-65
2021/05/23 01:33:01;;;;;;;12.15;4.18;;;;;;;;;;5114025;28;20062;-65
2021/05/23 01:35:40;;;;;;;12.45;4.60;;;;;;;;;;5114077;28;20032;-65
2021/05/23 01:38:13;;;;;;;11.85;3.80;;;;;;;;;;5113592;28;20489;-66
2021/05/23 01:40:39;;;;;;;12.38;4.22;;;;;;;;;;5113701;28;20459;-65
2021/05/23 01:43:12;;;;;;;16.77;4.78;;;;;;;;;;5113804;28;20051;-64
2021/05/23 01:45:44;;;;;;;17.13;4.78;;;;;;;;;;5113930;28;20102;-64
2021/05/23 01:48:10;;;;;;;14.32;4.97;;;;;;;;;;5113758;28;20039;-64
2021/05/23 01:50:42;;;;;;;12.75;5.10;;;;;;;;;;5113372;28;20061;-64
2021/05/23 01:53:14;;;;;;;14.73;5.18;;;;;;;;;;5113683;28;20118;-63
2021/05/23 01:55:40;;;;;;;13.30;5.35;;;;;;;;;;5113825;28;20052;-64
2021/05/23 01:58:12;;;;;;;17.48;5.60;;;;;;;;;;5113387;28;20047;-64
2021/05/23 02:00:47;;;;;;;12.80;4.70;;;;;;;;;;5110163;28;20156;-64
2021/05/23 02:03:20;;;;;;;15.65;4.68;;;;;;;;;;5093285;28;20388;-64
2021/05/23 02:05:53;;;;;;;12.70;4.85;;;;;;;;;;5093318;28;20039;-64
2021/05/23 02:08:20;;;;;;;10.00;4.55;;;;;;;;;;5091701;28;20086;-64
2021/05/23 02:10:52;;;;;;;10.10;4.88;;;;;;;;;;5093248;28;20095;-63
2021/05/23 02:13:25;;;;;;;10.90;4.28;;;;;;;;;;5093075;28;20032;-64
2021/05/23 02:15:50;;;;;;;17.35;5.75;;;;;;;;;;5093521;28;20043;-64
2021/05/23 02:18:22;;;;;;;12.63;4.85;;;;;;;;;;5092793;28;20016;-64
2021/05/23 02:20:54;;;;;;;10.65;4.60;;;;;;;;;;5093156;28;20140;-64
2021/05/23 02:23:21;;;;;;;12.57;4.65;;;;;;;;;;5092917;28;20126;-63
2021/05/23 02:25:53;;;;;;;19.30;4.55;;;;;;;;;;5093349;28;20017;-64
2021/05/23 02:28:25;;;;;;;8.13;3.92;;;;;;;;;;5092960;28;20097;-64
2021/05/23 02:30:52;;;;;;;14.63;4.55;;;;;;;;;;5093097;28;20090;-64
2021/05/23 02:33:27;;;;;;;14.60;5.28;;;;;;;;;;5092607;28;20020;-64
2021/05/23 02:35:59;;;;;;;13.80;5.63;;;;;;;;;;5093045;28;20035;-64
2021/05/23 02:38:25;;;;;;;23.25;6.88;;;;;;;;;;5092848;28;20111;-63
2021/05/23 02:40:57;;;;;;;12.98;4.63;;;;;;;;;;5092983;28;20039;-64
2021/05/23 02:43:31;;;;;;;12.93;5.63;;;;;;;;;;5092739;28;20058;-63
2021/05/23 02:45:56;;;;;;;20.48;5.45;;;;;;;;;;5092840;28;20040;-64
2021/05/23 02:48:28;;;;;;;12.07;5.20;;;;;;;;;;5092837;28;20463;-64
2021/05/23 02:51:02;;;;;;;15.80;4.50;;;;;;;;;;5092769;28;20025;-64
2021/05/23 02:53:28;;;;;;;14.15;4.65;;;;;;;;;;5092769;28;20071;-64
2021/05/23 02:55:59;;;;;;;11.07;4.53;;;;;;;;;;5092760;28;20040;-64
2021/05/23 02:58:31;;;;;;;13.02;4.22;;;;;;;;;;5092726;28;20024;-64
2021/05/23 03:00:57;;;;;;;10.20;4.22;;;;;;;;;;5098443;28;20027;-64
2021/05/23 03:03:28;;;;;;;12.88;4.43;;;;;;;;;;5115470;28;20580;-64
2021/05/23 03:06:00;;;;;;;11.45;4.38;;;;;;;;;;5117016;28;20031;-63
2021/05/23 03:08:26;;;;;;;10.77;5.20;;;;;;;;;;5115317;28;20059;-64
2021/05/23 03:10:58;;;;;;;13.65;4.75;;;;;;;;;;5116847;28;20028;-64
2021/05/23 03:13:30;;;;;;;9.38;4.05;;;;;;;;;;5116753;28;20032;-64
2021/05/23 03:15:56;;;;;;;14.70;4.60;;;;;;;;;;5116493;28;20498;-64
2021/05/23 03:18:27;;;;;;;16.33;4.80;;;;;;;;;;5116339;28;20020;-64
2021/05/23 03:20:59;;;;;;;14.07;4.53;;;;;;;;;;5116752;28;20383;-64
2021/05/23 03:23:25;;;;;;;14.02;4.57;;;;;;;;;;5116430;28;20039;-64
2021/05/23 03:25:56;;;;;;;11.75;4.70;;;;;;;;;;5116337;28;20051;-64
2021/05/23 03:28:28;;;;;;;13.90;4.47;;;;;;;;;;5116461;28;20028;-64
2021/05/23 03:30:54;;;;;;;9.85;3.97;;;;;;;;;;5116551;28;20074;-64
2021/05/23 03:33:25;;;;;;;9.73;4.47;;;;;;;;;;5115939;28;20065;-64
2021/05/23 03:35:57;;;;;;;12.38;4.38;;;;;;;;;;5116447;28;20028;-64
2021/05/23 03:38:23;;;;;;;13.20;4.25;;;;;;;;;;5115923;28;20536;-64
2021/05/23 03:40:54;;;;;;;10.98;3.85;;;;;;;;;;5116062;28;20106;-64
2021/05/23 03:43:26;;;;;;;7.88;3.55;;;;;;;;;;5116103;28;20027;-64
2021/05/23 03:45:52;;;;;;;10.80;3.70;;;;;;;;;;5115916;28;20114;-64
2021/05/23 03:48:23;;;;;;;9.10;3.67;;;;;;;;;;5116068;28;20047;-64
2021/05/23 03:50:55;;;;;;;11.35;3.67;;;;;;;;;;5115909;28;20534;-64
2021/05/23 03:53:21;;;;;;;11.95;4.20;;;;;;;;;;5116055;28;20031;-64
2021/05/23 03:55:52;;;;;;;11.82;4.15;;;;;;;;;;5116014;28;20014;-64
2021/05/23 03:58:24;;;;;;;15.63;4.22;;;;;;;;;;5115827;28;20028;-64
2021/05/23 04:00:50;;;;;;;9.38;4.15;;;;;;;;;;5115914;28;20035;-64
2021/05/23 04:03:24;;;;;;;9.10;3.97;;;;;;;;;;5115656;28;20098;-64
2021/05/23 04:05:58;;;;;;;9.88;4.20;;;;;;;;;;5115847;28;20114;-65
2021/05/23 04:08:30;;;;;;;11.98;3.80;;;;;;;;;;5114568;28;20094;-64
2021/05/23 04:11:02;;;;;;;16.88;4.30;;;;;;;;;;5115704;28;20027;-64
2021/05/23 04:13:41;;;;;;;9.88;4.15;;;;;;;;;;5115034;28;20027;-64
2021/05/23 04:16:08;;;;;;;11.05;4.00;;;;;;;;;;5115645;28;20031;-64
2021/05/23 04:18:33;;;;;;;13.63;4.40;;;;;;;;;;5115207;28;20517;-64
2021/05/23 04:21:12;;;;;;;12.13;4.32;;;;;;;;;;5115696;28;20008;-64
2021/05/23 04:23:37;;;;;;;13.60;4.30;;;;;;;;;;5115298;28;20035;-64
2021/05/23 04:26:05;;;;;;;13.80;4.22;;;;;;;;;;5115469;28;20023;-64
2021/05/23 04:28:43;;;;;;;11.60;3.83;;;;;;;;;;5115366;28;20026;-64
2021/05/23 04:31:08;;;;;;;8.95;3.83;;;;;;;;;;5115441;28;20032;-64
2021/05/23 04:33:34;;;;;;;11.75;4.22;;;;;;;;;;5115202;28;20028;-64
2021/05/23 04:36:12;;;;;;;11.00;3.90;;;;;;;;;;5115631;28;20015;-64
2021/05/23 04:38:38;;;;;;;13.02;3.88;;;;;;;;;;5115076;28;20027;-65
2021/05/23 04:41:03;;;;;;;9.88;4.38;;;;;;;;;;5114851;28;20065;-64
2021/05/23 04:43:41;;;;;;;12.63;4.38;;;;;;;;;;5115043;28;20019;-64
2021/05/23 04:46:06;;;;;;;8.60;3.85;;;;;;;;;;5115082;28;20023;-64
2021/05/23 04:48:32;;;;;;;16.38;4.63;;;;;;;;;;5115203;28;20012;-64
2021/05/23 04:51:10;;;;;;;23.20;4.47;;;;;;;;;;5115007;28;20376;-64
2021/05/23 04:53:35;;;;;;;19.73;4.80;;;;;;;;;;5114861;28;20031;-64
2021/05/23 04:56:01;;;;;;;20.58;5.47;;;;;;;;;;5114900;28;20418;-65
2021/05/23 04:58:39;;;;;;;17.17;4.72;;;;;;;;;;5114750;28;20015;-64
2021/05/23 05:01:04;;;;;;;16.98;5.07;;;;;;;;;;5107512;28;20477;-64
2021/05/23 05:03:30;;;;;;;22.95;5.93;;;;;;;;;;5093856;28;20028;-64
2021/05/23 05:06:08;;;;;;;15.80;4.15;;;;;;;;;;5094342;28;20035;-65
2021/05/23 05:08:33;;;;;;;16.67;3.97;;;;;;;;;;5092975;28;20044;-64
2021/05/23 05:10:59;;;;;;;20.15;4.43;;;;;;;;;;5093930;28;20103;-64
2021/05/23 05:13:38;;;;;;;18.38;5.18;;;;;;;;;;5094044;28;20016;-64
2021/05/23 05:16:04;;;;;;;28.02;5.13;;;;;;;;;;5094171;28;20035;-64
2021/05/23 05:18:29;;;;;;;12.73;3.67;;;;;;;;;;5093931;28;20020;-64
2021/05/23 05:21:08;;;;;;;12.90;3.60;;;;;;;;;;5094111;28;20012;-64
2021/05/23 05:23:33;;;;;;;13.63;3.50;;;;;;;;;;5093733;28;20039;-64
2021/05/23 05:26:01;;;;;;;13.90;3.05;;;;;;;;;;5092866;28;20016;-65
2021/05/23 05:28:39;;;;;;;16.50;2.90;;;;;;;;;;5093703;28;20022;-64
2021/05/23 05:31:04;;;;;;;11.07;3.03;;;;;;;;;;5093891;28;20028;-64
2021/05/23 05:33:30;;;;;;;17.02;3.00;;;;;;;;;;5093333;28;20434;-64
2021/05/23 05:36:08;;;;;;;15.25;2.53;;;;;;;;;;5093834;28;20013;-64
2021/05/23 05:38:34;;;;;;;10.63;4.45;;;;;;;;;;5093301;28;20468;-64
2021/05/23 05:40:59;;;;;;;18.67;2.67;;;;;;;;;;5093710;28;20016;-65
2021/05/23 05:43:38;;;;;;;7.22;2.50;;;;;;;;;;5093548;28;20020;-64
2021/05/23 05:46:03;;;;;;;9.82;2.50;;;;;;;;;;5093676;28;20024;-64
2021/05/23 05:48:29;;;;;;;8.80;2.50;;;;;;;;;;5093435;28;20024;-64
2021/05/23 05:51:07;;;;;;;10.02;3.60;;;;;;;;;;5093888;28;20468;-65
2021/05/23 05:53:32;;;;;;;9.40;2.78;;;;;;;;;;5093345;28;20138;-64
2021/05/23 05:55:58;;;;;;;11.25;2.33;;;;;;;;;;5093760;28;20504;-65
2021/05/23 05:58:36;;;;;;;7.45;2.25;;;;;;;;;;5093378;28;20357;-64
2021/05/23 06:01:01;;;;;;;9.38;2.40;;;;;;;;;;5099808;28;20035;-65
2021/05/23 06:03:27;;;;;;;5.53;2.30;;;;;;;;;;5113190;28;20433;-65
2021/05/23 06:06:05;;;;;;;11.23;2.67;;;;;;;;;;5113501;28;20449;-64
2021/05/23 06:08:30;;;;;;;11.52;2.97;;;;;;;;;;5091586;28;20129;-64
2021/05/23 06:10:56;;;;;;;9.00;2.15;;;;;;;;;;5093315;28;20453;-64
2021/05/23 06:13:34;;;;;;;8.57;2.20;;;;;;;;;;5092921;28;20066;-64
2021/05/23 06:15:59;;;;;;;9.65;2.05;;;;;;;;;;5093222;28;20028;-65
2021/05/23 06:18:28;;;;;;;6.72;1.92;;;;;;;;;;5093087;28;20024;-64
2021/05/23 06:21:06;;;;;;;10.65;2.30;;;;;;;;;;5093006;28;20469;-64
2021/05/23 06:23:31;;;;;;;8.27;2.22;;;;;;;;;;5092887;28;20032;-65
2021/05/23 06:25:57;;;;;;;5.43;1.65;;;;;;;;;;5093183;28;20028;-64
2021/05/23 06:28:35;;;;;;;12.15;3.15;;;;;;;;;;5092969;28;20031;-65
2021/05/23 06:31:00;;;;;;;10.20;1.73;;;;;;;;;;5093071;28;20024;-64
2021/05/23 06:33:26;;;;;;;3.30;1.65;;;;;;;;;;5092888;28;20020;-64
2021/05/23 06:36:04;;;;;;;8.20;1.77;;;;;;;;;;5093284;28;20515;-64
2021/05/23 06:38:29;;;;;;;7.32;1.90;;;;;;;;;;5096986;28;20032;-64
2021/05/23 06:40:55;;;;;;;7.45;1.80;;;;;;;;;;5097151;28;20081;-65
2021/05/23 06:43:33;;;;;;;6.78;2.03;;;;;;;;;;5096501;28;20338;-66
2021/05/23 06:45:58;;;;;;;4.38;1.60;;;;;;;;;;5096954;28;20435;-64
2021/05/23 06:48:24;;;;;;;9.05;1.90;;;;;;;;;;5097144;28;20020;-64
2021/05/23 06:51:02;;;;;;;8.52;1.98;;;;;;;;;;5096850;28;20023;-66
2021/05/23 06:53:27;;;;;;;8.95;1.90;;;;;;;;;;5096427;28;20366;-66
2021/05/23 06:55:53;;;;;;;11.85;2.72;;;;;;;;;;5096941;28;20085;-66
2021/05/23 06:58:31;;;;;;;7.85;1.58;;;;;;;;;;5096724;28;20042;-64
2021/05/23 07:00:57;;;;;;;8.80;1.67;;;;;;;;;;5079972;28;20029;-66
2021/05/23 07:03:22;;;;;;;7.07;1.70;;;;;;;;;;5076225;28;20025;-64
2021/05/23 07:06:00;;;;;;;6.30;1.42;;;;;;;;;;5075071;28;20070;-64
2021/05/23 07:08:25;;;;;;;9.07;2.15;;;;;;;;;;5088692;28;20052;-64
2021/05/23 07:10:51;;;;;;;10.35;1.83;;;;;;;;;;5096502;28;20146;-64
2021/05/23 07:13:29;;;;;;;10.35;1.83;;;;;;;;;;5096542;28;20051;-65
2021/05/23 07:15:54;;;;;;;8.95;1.65;;;;;;;;;;5096482;28;20133;-64
2021/05/23 07:18:20;;;;;;;11.38;1.70;;;;;;;;;;5115956;28;20071;-63
2021/05/23 07:20:59;;;;;;;3.75;1.73;;;;;;;;;;5116711;28;20031;-64
2021/05/23 07:23:25;;;;;;;6.57;1.58;;;;;;;;;;5116429;28;20479;-64
2021/05/23 07:25:50;;;;;;;14.65;4.10;;;;;;;;;;5116413;28;20076;-65
2021/05/23 07:28:29;;;;;;;3.40;1.23;;;;;;;;;;5117055;28;20026;-64
2021/05/23 07:30:55;;;;;;;7.30;2.30;;;;;;;;;;5116558;28;20036;-65
2021/05/23 07:33:20;;;;;;;8.85;1.70;;;;;;;;;;5116279;28;20030;-64
2021/05/23 07:36:00;;;;;;;7.03;1.73;;;;;;;;;;5116388;28;20028;-65
2021/05/23 07:38:25;;;;;;;4.20;1.25;;;;;;;;;;5116234;28;20038;-64
2021/05/23 07:40:51;;;;;;;8.70;2.65;;;;;;;;;;5116186;28;20023;-65
2021/05/23 07:43:29;;;;;;;5.40;1.35;;;;;;;;;;5116643;28;20051;-65
2021/05/23 07:45:55;;;;;;;5.20;1.30;;;;;;;;;;5116298;28;20040;-65
2021/05/23 07:48:20;;;;;;;11.57;1.45;;;;;;;;;;5115418;28;20083;-65
2021/05/23 07:50:59;;;;;;;3.78;0.90;;;;;;;;;;5110663;28;20139;-65
2021/05/23 07:53:24;;;;;;;13.32;1.65;;;;;;;;;;5095763;28;20035;-65
2021/05/23 07:55:50;;;;;;;8.75;1.42;;;;;;;;;;5095522;28;20028;-65
2021/05/23 07:58:28;;;;;;;8.07;1.55;;;;;;;;;;5095658;28;20030;-65
2021/05/23 08:00:54;;;;;;;6.00;1.92;;;;;;;;;;5095613;28;20119;-65
2021/05/23 08:03:19;;;;;;;5.65;1.20;;;;;;;;;;5095509;28;20107;-65
2021/05/23 08:05:57;;;;;;;7.47;1.50;;;;;;;;;;5095396;28;20372;-65
2021/05/23 08:08:23;;;;;;;7.43;1.30;;;;;;;;;;5093986;28;20131;-64
2021/05/23 08:10:48;;;;;;;6.85;1.10;;;;;;;;;;5095275;28;20146;-65
2021/05/23 08:13:27;;;;;;;10.98;1.40;;;;;;;;;;5095342;28;20019;-65
2021/05/23 08:15:54;;;;;;;5.32;1.45;;;;;;;;;;5095216;28;20028;-65
2021/05/23 08:18:27;;;;;;;5.65;0.93;;;;;;;;;;5095277;28;20103;-65
2021/05/23 08:21:07;;;;;;;3.75;1.05;;;;;;;;;;5095418;28;20047;-65
2021/05/23 08:23:32;;;;;;;6.82;1.50;;;;;;;;;;5094904;28;20044;-65
2021/05/23 08:25:58;;;;;;;6.25;1.08;;;;;;;;;;5094802;28;20073;-65
2021/05/23 08:28:37;;;;;;;4.18;0.88;;;;;;;;;;5094823;28;20047;-65
2021/05/23 08:31:03;;;;;;;4.63;1.05;;;;;;;;;;5095046;28;20484;-65
2021/05/23 08:33:30;;;;;;;4.15;1.00;;;;;;;;;;5094947;28;20077;-65
2021/05/23 08:36:08;;;;;;;4.95;1.10;;;;;;;;;;5094420;28;20397;-65
2021/05/23 08:38:33;;;;;;;6.70;0.98;;;;;;;;;;5094715;28;20032;-64
2021/05/23 08:40:59;;;;;;;5.18;1.77;;;;;;;;;;5094841;28;20423;-65
2021/05/23 08:43:38;;;;;;;2.03;0.82;;;;;;;;;;5094762;28;20031;-64
2021/05/23 08:46:03;;;;;;;10.07;1.20;;;;;;;;;;5094441;28;20035;-65
2021/05/23 08:48:29;;;;;;;4.82;1.13;;;;;;;;;;5094611;28;20065;-65
2021/05/23 08:51:07;;;;;;;5.25;1.02;;;;;;;;;;5100897;28;20088;-65
2021/05/23 08:53:33;;;;;;;8.25;1.40;;;;;;;;;;5114914;28;20044;-65
2021/05/23 08:55:58;;;;;;;5.32;1.33;;;;;;;;;;5114749;28;20026;-65
2021/05/23 08:58:37;;;;;;;4.85;1.15;;;;;;;;;;5115300;28;20047;-65
2021/05/23 09:01:02;;;;;;;4.40;0.88;;;;;;;;;;5114803;28;20357;-65
2021/05/23 09:03:28;;;;;;;8.90;1.08;;;;;;;;;;5114770;28;20019;-65
2021/05/23 09:06:08;;;;;;;5.25;1.05;;;;;;;;;;5114530;28;20020;-65
2021/05/23 09:08:33;;;;;;;6.80;1.05;;;;;;;;;;5092633;28;20048;-65
2021/05/23 09:11:00;;;;;;;7.05;1.23;;;;;;;;;;5094163;28;20022;-65
2021/05/23 09:13:43;;;;;;;5.28;1.30;;;;;;;;;;5094250;28;20055;-65
2021/05/23 09:16:10;;;;;;;5.38;1.60;;;;;;;;;;5094008;28;20028;-65
2021/05/23 09:18:42;;;;;;;4.15;0.98;;;;;;;;;;5093821;28;20476;-66
2021/05/23 09:21:15;;;;;;;6.95;1.38;;;;;;;;;;5093827;28;20510;-65
2021/05/23 09:23:46;;;;;;;4.78;1.30;;;;;;;;;;5093738;28;20468;-65
2021/05/23 09:26:27;;;;;;;3.53;1.15;;;;;;;;;;5093997;28;20024;-66
2021/05/23 09:28:53;;;;;;;7.47;0.93;;;;;;;;;;5093767;28;20040;-65
2021/05/23 09:31:22;;;;;;;5.10;1.67;;;;;;;;;;5094010;28;20027;-66
2021/05/23 09:34:01;;;;;;;6.88;1.13;;;;;;;;;;5093743;28;20358;-65
2021/05/23 09:36:27;;;;;;;4.32;1.23;;;;;;;;;;5093783;28;20153;-66
2021/05/23 09:38:56;;;;;;;5.90;1.50;;;;;;;;;;5093828;28;20110;-66
2021/05/23 09:41:36;;;;;;;4.53;1.13;;;;;;;;;;5092605;28;20381;-65
2021/05/23 09:44:13;;;;;;;9.35;1.40;;;;;;;;;;5093428;28;20035;-66
2021/05/23 09:47:01;;;;;;;7.10;1.50;;;;;;;;;;5093548;28;20024;-65
2021/05/23 09:49:28;;;;;;;4.20;1.20;;;;;;;;;;5093441;28;20036;-65
2021/05/23 09:52:08;;;;;;;6.13;1.10;;;;;;;;;;5078628;28;20424;-65
2021/05/23 09:54:50;;;;;;;4.40;1.08;;;;;;;;;;5072779;28;20587;-65
2021/05/23 09:57:30;;;;;;;8.05;1.70;;;;;;;;;;5073281;28;20025;-65
2021/05/23 10:00:02;;;;;;;4.55;1.10;;;;;;;;;;5073032;28;20041;-65
2021/05/23 10:02:55;;;;;;;5.13;1.20;;;;;;;;;;5073207;28;20027;-65
2021/05/23 10:05:21;;;;;;;7.13;1.52;;;;;;;;;;5073066;28;20070;-65
2021/05/23 10:07:52;;;;;;;5.88;1.20;;;;;;;;;;5076918;28;20476;-66
2021/05/23 10:10:27;;;;;;;6.38;1.48;;;;;;;;;;5093103;28;20111;-66
2021/05/23 10:12:59;;;;;;;4.90;1.70;;;;;;;;;;5092680;28;20032;-66
2021/05/23 10:15:25;;;;;;;4.07;1.25;;;;;;;;;;5093000;28;20162;-66
2021/05/23 10:17:57;;;;;;;10.07;1.70;;;;;;;;;;5093172;28;20098;-66
2021/05/23 10:20:29;;;;;;;4.00;1.10;;;;;;;;;;5093087;28;20032;-67
2021/05/23 10:22:57;;;;;;;4.78;1.20;;;;;;;;;;5109876;28;20043;-67
2021/05/23 10:25:29;;;;;;;3.60;1.10;;;;;;;;;;5113295;28;20038;-67
2021/05/23 10:28:02;;;;;;;3.35;1.20;;;;;;;;;;5113363;28;20032;-67
2021/05/23 10:30:28;;;;;;;3.85;1.23;;;;;;;;;;5113388;28;20039;-67
2021/05/23 10:33:00;;;;;;;7.82;1.38;;;;;;;;;;5112936;28;20027;-66
2021/05/23 10:35:34;;;;;;;5.38;1.20;;;;;;;;;;5113626;28;20031;-66
2021/05/23 10:38:14;;;;;;;7.22;1.30;;;;;;;;;;5112893;28;20028;-66
2021/05/23 10:40:52;;;;;;;6.47;1.60;;;;;;;;;;5092964;28;20054;-66
2021/05/23 10:43:31;;;;;;;3.50;0.82;;;;;;;;;;5092957;28;20040;-66
2021/05/23 10:46:03;;;;;;;6.28;1.77;;;;;;;;;;5092766;28;20040;-65
2021/05/23 10:48:29;;;;;;;8.52;2.25;;;;;;;;;;5092970;28;20078;-66
2021/05/23 10:51:00;;;;;;;6.28;1.00;;;;;;;;;;5092558;28;20020;-66
2021/05/23 10:53:33;;;;;;;4.25;1.00;;;;;;;;;;5092932;28;20468;-66
2021/05/23 10:55:58;;;;;;;3.95;1.42;;;;;;;;;;5100332;28;20139;-66
2021/05/23 10:58:31;;;;;;;3.42;1.10;;;;;;;;;;5112931;28;20055;-66
2021/05/23 11:01:05;;;;;;;9.70;1.20;;;;;;;;;;5112918;28;20057;-65
2021/05/23 11:03:31;;;;;;;4.88;1.25;;;;;;;;;;5113023;28;20076;-65
2021/05/23 11:06:07;;;;;;;4.82;1.05;;;;;;;;;;5112943;28;20406;-65
2021/05/23 11:08:39;;;;;;;6.70;1.20;;;;;;;;;;5111605;28;20144;-65
2021/05/23 11:11:05;;;;;;;6.30;1.30;;;;;;;;;;5113029;28;20050;-65
2021/05/23 11:13:39;;;;;;;4.18;1.20;;;;;;;;;;5113112;28;20375;-65
2021/05/23 11:16:14;;;;;;;5.63;1.40;;;;;;;;;;5112837;28;20028;-66
2021/05/23 11:18:46;;;;;;;4.78;1.40;;;;;;;;;;5112934;28;20063;-65
2021/05/23 11:21:18;;;;;;;6.25;1.10;;;;;;;;;;5113004;28;20054;-65
2021/05/23 11:23:55;;;;;;;3.85;1.00;;;;;;;;;;5114790;28;20043;-65
2021/05/23 11:26:29;;;;;;;6.63;1.70;;;;;;;;;;5116540;28;20116;-65
2021/05/23 11:29:02;;;;;;;10.02;1.30;;;;;;;;;;5116530;28;20039;-66
2021/05/23 11:31:39;;;;;;;7.38;1.50;;;;;;;;;;5096935;28;20379;-66
2021/05/23 11:34:12;;;;;;;5.70;1.20;;;;;;;;;;5095973;28;20026;-66
2021/05/23 11:36:44;;;;;;;5.68;1.10;;;;;;;;;;5096027;28;20032;-65
2021/05/23 11:39:14;;;;;;;6.60;1.52;;;;;;;;;;5095637;28;20542;-65
2021/05/23 11:41:45;;;;;;;5.75;1.10;;;;;;;;;;5095965;28;20024;-65
2021/05/23 11:44:18;;;;;;;4.80;0.98;;;;;;;;;;5095782;28;20044;-65
2021/05/23 11:46:45;;;;;;;2.63;0.70;;;;;;;;;;5095827;28;20032;-65
2021/05/23 11:49:26;;;;;;;5.20;1.10;;;;;;;;;;5095749;28;20023;-65
2021/05/23 11:52:03;;;;;;;4.63;1.02;;;;;;;;;;5095612;28;20039;-65
2021/05/23 11:54:35;;;;;;;4.85;1.45;;;;;;;;;;5095715;28;20024;-65
2021/05/23 11:57:08;;;;;;;6.57;0.82;;;;;;;;;;5095620;28;20101;-65
2021/05/23 11:59:33;;;;;;;4.07;1.05;;;;;;;;;;5095339;28;20084;-65
2021/05/23 12:02:05;;;;;;;5.03;1.63;;;;;;;;;;5095487;28;20024;-66
2021/05/23 12:04:37;;;;;;;5.38;1.52;;;;;;;;;;5095403;28;20044;-65
2021/05/23 12:07:03;;;;;;;4.90;1.30;;;;;;;;;;5095841;28;20032;-65
2021/05/23 12:09:38;;;;;;;4.78;1.10;;;;;;;;;;5094290;28;20075;-65
2021/05/23 12:12:09;;;;;;;4.80;1.33;;;;;;;;;;5095445;28;20032;-65
2021/05/23 12:14:46;;;;;;;10.02;1.30;;;;;;;;;;5095304;28;20028;-65
2021/05/23 12:17:18;;;;;;;4.50;1.10;;;;;;;;;;5095297;28;20032;-65
2021/05/23 12:19:54;;;;;;;6.45;2.05;;;;;;;;;;5095128;28;20038;-65
2021/05/23 12:22:19;;;;;;;;;;;;;;;;;;5095696;28;20078;-65
2021/05/23 12:24:44;;;;;;;;;;;;;;;;;;5095240;28;19916;-65
2021/05/23 12:27:33;;;;;;;5.63;1.20;;;;;;;;;;5095307;28;20357;-65
2021/05/23 12:30:09;;;;;;;8.25;1.27;;;;;;;;;;5101813;28;20031;-65
2021/05/23 12:32:52;;;;;;;6.32;1.70;;;;;;;;;;5115250;28;20533;-65
2021/05/23 12:35:24;;;;;;;5.60;1.27;;;;;;;;;;5115000;28;20067;-65
2021/05/23 12:38:06;;;;;;;6.57;1.27;;;;;;;;;;5114850;28;20452;-65
2021/05/23 12:40:41;;;;;;;6.95;1.30;;;;;;;;;;5115249;28;20091;-65
2021/05/23 12:43:22;;;;;;;8.75;1.50;;;;;;;;;;5115249;28;20011;-65
2021/05/23 12:45:50;;;;;;;7.00;1.20;;;;;;;;;;5114786;28;20043;-65
2021/05/23 12:48:52;;;;;;;11.93;1.90;;;;;;;;;;5115121;28;20106;-65
2021/05/23 12:51:18;;;;;;;5.53;2.13;;;;;;;;;;5105847;28;20071;-65
2021/05/23 12:54:01;;;;;;;5.40;1.00;;;;;;;;;;5114845;28;20016;-65
2021/05/23 12:56:28;;;;;;;5.15;1.38;;;;;;;;;;5114886;28;20028;-65
2021/05/23 12:59:00;;;;;;;8.05;1.45;;;;;;;;;;5114756;28;20049;-65
2021/05/23 13:01:42;;;;;;;8.63;1.70;;;;;;;;;;5114836;28;20088;-66
2021/05/23 13:04:14;;;;;;;8.25;1.52;;;;;;;;;;5114760;28;20039;-65
2021/05/23 13:06:52;;;;;;;5.65;1.20;;;;;;;;;;5114625;28;20035;-65
2021/05/23 13:09:34;;;;;;;3.80;1.00;;;;;;;;;;5113167;28;20385;-65
2021/05/23 13:12:10;;;;;;;8.82;1.55;;;;;;;;;;5096391;28;20035;-65
2021/05/23 13:14:52;;;;;;;9.82;1.52;;;;;;;;;;5114498;28;20027;-65
2021/05/23 13:17:29;;;;;;;10.52;1.58;;;;;;;;;;5114511;28;20089;-65
2021/05/23 13:20:03;;;;;;;8.38;1.50;;;;;;;;;;5113939;28;20088;-65
2021/05/23 13:22:29;;;;;;;11.57;1.65;;;;;;;;;;5114493;28;20384;-65
2021/05/23 13:25:04;;;;;;;5.70;1.17;;;;;;;;;;5114060;28;20031;-65
2021/05/23 13:27:35;;;;;;;9.32;2.30;;;;;;;;;;5114465;28;20030;-65
2021/05/23 13:30:07;;;;;;;10.45;1.65;;;;;;;;;;5106722;28;20028;-65
2021/05/23 13:32:33;;;;;;;10.70;4.00;;;;;;;;;;5093951;28;20028;-65
2021/05/23 13:35:05;;;;;;;16.83;6.70;;;;;;;;;;5093634;28;20094;-65
2021/05/23 13:37:36;;;;;;;10.63;4.82;;;;;;;;;;5093853;28;20081;-65
2021/05/23 13:40:03;;;;;;;15.45;7.32;;;;;;;;;;5093558;28;20111;-65
2021/05/23 13:42:34;;;;;;;13.77;4.10;;;;;;;;;;5093690;28;20035;-64
2021/05/23 13:45:07;;;;;;;9.27;2.30;;;;;;;;;;5093319;28;20119;-65
2021/05/23 13:47:32;;;;;;;4.85;1.55;;;;;;;;;;5093124;28;20161;-65
2021/05/23 13:50:05;;;;;;;9.82;1.90;;;;;;;;;;5093609;28;20452;-65
2021/05/23 13:52:37;;;;;;;10.77;1.80;;;;;;;;;;5093630;28;20031;-65
2021/05/23 13:55:03;;;;;;;4.72;1.60;;;;;;;;;;5093302;28;20031;-65
2021/05/23 13:57:35;;;;;;;12.48;1.95;;;;;;;;;;5093553;28;20081;-65
2021/05/23 14:00:07;;;;;;;6.45;1.65;;;;;;;;;;5093244;28;20024;-65
2021/05/23 14:02:32;;;;;;;8.77;2.08;;;;;;;;;;5093498;28;20032;-65
2021/05/23 14:05:05;;;;;;;8.55;1.60;;;;;;;;;;5092740;28;20449;-65
2021/05/23 14:07:43;;;;;;;9.18;1.60;;;;;;;;;;5093226;28;20043;-65
2021/05/23 14:10:15;;;;;;;12.20;1.90;;;;;;;;;;5092574;28;20048;-65
2021/05/23 14:12:41;;;;;;;11.05;2.08;;;;;;;;;;5093259;28;20040;-65
2021/05/23 14:15:13;;;;;;;12.77;3.92;;;;;;;;;;5093137;28;20023;-65
2021/05/23 14:17:45;;;;;;;12.43;2.58;;;;;;;;;;5093164;28;20028;-64
2021/05/23 14:20:11;;;;;;;16.83;3.97;;;;;;;;;;5093021;28;20060;-66
2021/05/23 14:22:42;;;;;;;16.00;4.43;;;;;;;;;;5113304;28;20054;-67
2021/05/23 14:25:14;;;;;;;13.30;2.70;;;;;;;;;;5113225;28;20036;-67
2021/05/23 14:27:40;;;;;;;15.05;3.33;;;;;;;;;;5113111;28;20107;-65
2021/05/23 14:30:12;;;;;;;15.18;3.97;;;;;;;;;;5113245;28;20051;-64
2021/05/23 14:32:45;;;;;;;12.80;3.95;;;;;;;;;;5113372;28;20372;-67
2021/05/23 14:35:21;;;;;;;12.75;2.83;;;;;;;;;;5113286;28;20032;-67
2021/05/23 14:37:54;;;;;;;21.55;3.40;;;;;;;;;;5108676;28;20035;-65
2021/05/23 14:40:20;;;;;;;13.70;2.28;;;;;;;;;;5092883;28;20059;-67
2021/05/23 14:42:52;;;;;;;10.13;3.10;;;;;;;;;;5092885;28;20016;-67
2021/05/23 14:45:24;;;;;;;18.40;3.90;;;;;;;;;;5092895;28;20136;-67
2021/05/23 14:47:50;;;;;;;13.57;2.38;;;;;;;;;;5092770;28;20097;-65
2021/05/23 14:50:21;;;;;;;17.73;4.93;;;;;;;;;;5092855;28;20024;-65
2021/05/23 14:52:53;;;;;;;10.60;3.40;;;;;;;;;;5092864;28;20020;-65
2021/05/23 14:55:19;;;;;;;15.43;4.15;;;;;;;;;;5101308;28;20039;-64
2021/05/23 14:57:51;;;;;;;19.75;6.38;;;;;;;;;;5115010;28;20016;-64
2021/05/23 15:00:24;;;;;;;14.60;4.25;;;;;;;;;;5117092;28;20054;-65
2021/05/23 15:02:50;;;;;;;22.30;3.50;;;;;;;;;;5116964;28;20019;-66